sensor_id;sensor_type;location;lat;lon;timestamp;temperature;humidity
2729;DHT22;1372;47.956;7.830;2023-02-15T00:00:29;-0.60;99.90
2729;DHT22;1372;47.956;7.830;2023-02-15T00:02:57;-0.40;99.90
2729;DHT22;1372;47.956;7.830;2023-02-15T00:05:27;-0.40;99.90
2729;DHT22;1372;47.956;7.830;2023-02-15T00:07:58;-0.60;99.90
2729;DHT22;1372;47.956;7.830;2023-02-15T00:10:27;-0.90;99.90
2729;DHT22;1372;47.956;7.830;2023-02-15T00:12:56;-1.00;99.90
2729;DHT22;1372;47.956;7.830;2023-02-15T00:15:24;-1.00;99.90
2729;DHT22;1372;47.956;7.830;2023-02-15T00:17:53;-0.90;99.90
2729;DHT22;1372;47.956;7.830;2023-02-15T00:20:23;-0.80;99.90
2729;DHT22;1372;47.956;7.830;2023-02-15T00:22:53;-0.80;99.90
2729;DHT22;1372;47.956;7.830;2023-02-15T00:25:22;-0.90;99.90
2729;DHT22;1372;47.956;7.830;2023-02-15T00:27:51;-1.00;99.90
2729;DHT22;1372;47.956;7.830;2023-02-15T00:30:20;-1.00;99.90
2729;DHT22;1372;47.956;7.830;2023-02-15T00:32:48;-1.00;99.90
2729;DHT22;1372;47.956;7.830;2023-02-15T00:35:23;-1.00;99.90
2729;DHT22;1372;47.956;7.830;2023-02-15T00:37:53;-1.00;99.90
2729;DHT22;1372;47.956;7.830;2023-02-15T00:40:24;-1.10;99.90
2729;DHT22;1372;47.956;7.830;2023-02-15T00:42:53;-1.10;99.90
2729;DHT22;1372;47.956;7.830;2023-02-15T00:45:21;-1.10;99.90
2729;DHT22;1372;47.956;7.830;2023-02-15T00:47:50;-1.00;99.90
2729;DHT22;1372;47.956;7.830;2023-02-15T00:50:19;-1.10;99.90
2729;DHT22;1372;47.956;7.830;2023-02-15T00:52:50;-1.10;99.90
2729;DHT22;1372;47.956;7.830;2023-02-15T00:55:20;-1.10;99.90
2729;DHT22;1372;47.956;7.830;2023-02-15T00:57:48;-1.10;99.90
2729;DHT22;1372;47.956;7.830;2023-02-15T01:00:20;-1.10;99.90
2729;DHT22;1372;47.956;7.830;2023-02-15T01:02:51;-1.00;99.90
2729;DHT22;1372;47.956;7.830;2023-02-15T01:05:19;-1.10;99.90
2729;DHT22;1372;47.956;7.830;2023-02-15T01:07:48;-1.10;99.90
2729;DHT22;1372;47.956;7.830;2023-02-15T01:10:21;-1.10;99.90
2729;DHT22;1372;47.956;7.830;2023-02-15T01:12:50;-1.10;99.90
2729;DHT22;1372;47.956;7.830;2023-02-15T01:15:19;-1.10;99.90
2729;DHT22;1372;47.956;7.830;2023-02-15T01:17:48;-1.10;99.90
2729;DHT22;1372;47.956;7.830;2023-02-15T01:20:20;-1.20;99.90
2729;DHT22;1372;47.956;7.830;2023-02-15T01:22:50;-1.20;99.90
2729;DHT22;1372;47.956;7.830;2023-02-15T01:25:22;-1.20;99.90
2729;DHT22;1372;47.956;7.830;2023-02-15T01:27:51;-1.20;99.90
2729;DHT22;1372;47.956;7.830;2023-02-15T01:30:22;-1.30;99.90
2729;DHT22;1372;47.956;7.830;2023-02-15T01:32:50;-1.30;99.90
2729;DHT22;1372;47.956;7.830;2023-02-15T01:35:19;-1.30;99.90
2729;DHT22;1372;47.956;7.830;2023-02-15T01:37:48;-1.30;99.90
2729;DHT22;1372;47.956;7.830;2023-02-15T01:40:18;-1.30;99.90
2729;DHT22;1372;47.956;7.830;2023-02-15T01:42:52;-1.30;99.90
2729;DHT22;1372;47.956;7.830;2023-02-15T01:45:23;-1.30;99.90
2729;DHT22;1372;47.956;7.830;2023-02-15T01:47:57;-1.40;99.90
2729;DHT22;1372;47.956;7.830;2023-02-15T01:50:31;-1.50;99.90
2729;DHT22;1372;47.956;7.830;2023-02-15T01:53:05;-1.50;99.90
2729;DHT22;1372;47.956;7.830;2023-02-15T01:55:40;-1.50;99.90
2729;DHT22;1372;47.956;7.830;2023-02-15T01:58:14;-1.40;99.90
2729;DHT22;1372;47.956;7.830;2023-02-15T02:00:45;-1.30;99.90
2729;DHT22;1372;47.956;7.830;2023-02-15T02:03:15;-1.40;99.90
2729;DHT22;1372;47.956;7.830;2023-02-15T02:05:44;-1.40;99.90
2729;DHT22;1372;47.956;7.830;2023-02-15T02:08:13;-1.50;99.90
2729;DHT22;1372;47.956;7.830;2023-02-15T02:10:42;-1.60;99.90
2729;DHT22;1372;47.956;7.830;2023-02-15T02:13:12;-1.60;99.90
2729;DHT22;1372;47.956;7.830;2023-02-15T02:15:47;-1.50;99.90
2729;DHT22;1372;47.956;7.830;2023-02-15T02:18:35;-1.50;99.90
2729;DHT22;1372;47.956;7.830;2023-02-15T02:21:58;-1.40;99.90
2729;DHT22;1372;47.956;7.830;2023-02-15T02:28:08;-1.30;99.90
2729;DHT22;1372;47.956;7.830;2023-02-15T02:33:57;-1.40;99.90
2729;DHT22;1372;47.956;7.830;2023-02-15T02:36:35;-1.60;99.90
2729;DHT22;1372;47.956;7.830;2023-02-15T02:39:19;-1.60;99.90
2729;DHT22;1372;47.956;7.830;2023-02-15T02:41:58;-1.70;99.90
2729;DHT22;1372;47.956;7.830;2023-02-15T02:44:37;-1.80;99.90
2729;DHT22;1372;47.956;7.830;2023-02-15T02:47:13;-1.70;99.90
2729;DHT22;1372;47.956;7.830;2023-02-15T02:49:47;-1.70;99.90
2729;DHT22;1372;47.956;7.830;2023-02-15T02:52:36;-1.60;99.90
2729;DHT22;1372;47.956;7.830;2023-02-15T02:55:11;-1.50;99.90
2729;DHT22;1372;47.956;7.830;2023-02-15T02:57:48;-1.50;99.90
2729;DHT22;1372;47.956;7.830;2023-02-15T03:00:22;-1.50;99.90
2729;DHT22;1372;47.956;7.830;2023-02-15T03:02:56;-1.50;99.90
2729;DHT22;1372;47.956;7.830;2023-02-15T03:05:39;-1.50;99.90
2729;DHT22;1372;47.956;7.830;2023-02-15T03:08:11;-1.50;99.90
2729;DHT22;1372;47.956;7.830;2023-02-15T03:10:40;-1.40;99.90
2729;DHT22;1372;47.956;7.830;2023-02-15T03:13:09;-1.40;99.90
2729;DHT22;1372;47.956;7.830;2023-02-15T03:15:39;-1.40;99.90
2729;DHT22;1372;47.956;7.830;2023-02-15T03:18:31;-1.40;99.90
2729;DHT22;1372;47.956;7.830;2023-02-15T03:21:05;-1.40;99.90
2729;DHT22;1372;47.956;7.830;2023-02-15T03:23:36;-1.40;99.90
2729;DHT22;1372;47.956;7.830;2023-02-15T03:26:06;-1.40;99.90
2729;DHT22;1372;47.956;7.830;2023-02-15T03:28:42;-1.30;99.90
2729;DHT22;1372;47.956;7.830;2023-02-15T03:31:13;-1.40;99.90
2729;DHT22;1372;47.956;7.830;2023-02-15T03:33:49;-1.30;99.90
2729;DHT22;1372;47.956;7.830;2023-02-15T03:36:26;-1.30;99.90
2729;DHT22;1372;47.956;7.830;2023-02-15T03:39:03;-1.40;99.90
2729;DHT22;1372;47.956;7.830;2023-02-15T03:41:41;-1.20;99.90
2729;DHT22;1372;47.956;7.830;2023-02-15T03:44:18;-1.10;99.90
2729;DHT22;1372;47.956;7.830;2023-02-15T03:46:53;-1.00;99.90
2729;DHT22;1372;47.956;7.830;2023-02-15T03:49:30;-1.00;99.90
2729;DHT22;1372;47.956;7.830;2023-02-15T03:52:07;-1.00;99.90
2729;DHT22;1372;47.956;7.830;2023-02-15T03:54:37;-1.00;99.90
2729;DHT22;1372;47.956;7.830;2023-02-15T03:57:19;-1.10;99.90
2729;DHT22;1372;47.956;7.830;2023-02-15T04:00:12;-1.10;99.90
2729;DHT22;1372;47.956;7.830;2023-02-15T04:03:20;-1.00;99.90
2729;DHT22;1372;47.956;7.830;2023-02-15T04:05:52;-0.90;99.90
2729;DHT22;1372;47.956;7.830;2023-02-15T04:08:22;-1.10;99.90
2729;DHT22;1372;47.956;7.830;2023-02-15T04:11:12;-1.20;99.90
2729;DHT22;1372;47.956;7.830;2023-02-15T04:13:39;-1.30;99.90
2729;DHT22;1372;47.956;7.830;2023-02-15T04:16:08;-1.40;99.90
2729;DHT22;1372;47.956;7.830;2023-02-15T04:18:37;-1.40;99.90
2729;DHT22;1372;47.956;7.830;2023-02-15T04:21:29;-1.50;99.90
2729;DHT22;1372;47.956;7.830;2023-02-15T04:24:18;-1.60;99.90
2729;DHT22;1372;47.956;7.830;2023-02-15T04:27:06;-1.70;99.90
2729;DHT22;1372;47.956;7.830;2023-02-15T04:29:36;-1.80;99.90
2729;DHT22;1372;47.956;7.830;2023-02-15T04:32:05;-1.90;99.90
2729;DHT22;1372;47.956;7.830;2023-02-15T04:34:34;-1.90;99.90
2729;DHT22;1372;47.956;7.830;2023-02-15T04:37:02;-2.10;99.90
2729;DHT22;1372;47.956;7.830;2023-02-15T04:39:32;-2.00;99.90
2729;DHT22;1372;47.956;7.830;2023-02-15T04:42:01;-1.90;99.90
2729;DHT22;1372;47.956;7.830;2023-02-15T04:44:32;-2.00;99.90
2729;DHT22;1372;47.956;7.830;2023-02-15T04:47:01;-2.10;99.90
2729;DHT22;1372;47.956;7.830;2023-02-15T04:49:29;-2.10;99.90
2729;DHT22;1372;47.956;7.830;2023-02-15T04:51:58;-2.10;99.90
2729;DHT22;1372;47.956;7.830;2023-02-15T04:54:29;-2.00;99.90
2729;DHT22;1372;47.956;7.830;2023-02-15T04:57:01;-2.10;99.90
2729;DHT22;1372;47.956;7.830;2023-02-15T04:59:30;-2.10;99.90
2729;DHT22;1372;47.956;7.830;2023-02-15T05:01:58;-2.10;99.90
2729;DHT22;1372;47.956;7.830;2023-02-15T05:04:27;-2.10;99.90
2729;DHT22;1372;47.956;7.830;2023-02-15T05:06:56;-2.20;99.90
2729;DHT22;1372;47.956;7.830;2023-02-15T05:09:24;-2.20;99.90
2729;DHT22;1372;47.956;7.830;2023-02-15T05:11:53;-2.30;99.90
2729;DHT22;1372;47.956;7.830;2023-02-15T05:14:23;-2.10;99.90
2729;DHT22;1372;47.956;7.830;2023-02-15T05:16:52;-2.10;99.90
2729;DHT22;1372;47.956;7.830;2023-02-15T05:19:21;-2.30;99.90
2729;DHT22;1372;47.956;7.830;2023-02-15T05:21:51;-2.30;99.90
2729;DHT22;1372;47.956;7.830;2023-02-15T05:24:20;-2.40;99.90
2729;DHT22;1372;47.956;7.830;2023-02-15T05:27:07;-2.40;99.90
2729;DHT22;1372;47.956;7.830;2023-02-15T05:29:55;-2.50;99.90
2729;DHT22;1372;47.956;7.830;2023-02-15T05:32:24;-2.40;99.90
2729;DHT22;1372;47.956;7.830;2023-02-15T05:34:53;-2.40;99.90
2729;DHT22;1372;47.956;7.830;2023-02-15T05:37:22;-2.40;99.90
2729;DHT22;1372;47.956;7.830;2023-02-15T05:39:50;-2.40;99.90
2729;DHT22;1372;47.956;7.830;2023-02-15T05:42:19;-2.40;99.90
2729;DHT22;1372;47.956;7.830;2023-02-15T05:44:50;-2.30;99.90
2729;DHT22;1372;47.956;7.830;2023-02-15T05:47:20;-2.30;99.90
2729;DHT22;1372;47.956;7.830;2023-02-15T05:49:48;-2.30;99.90
2729;DHT22;1372;47.956;7.830;2023-02-15T05:52:17;-2.30;99.90
2729;DHT22;1372;47.956;7.830;2023-02-15T05:54:48;-2.30;99.90
2729;DHT22;1372;47.956;7.830;2023-02-15T05:57:17;-2.30;99.90
2729;DHT22;1372;47.956;7.830;2023-02-15T05:59:46;-2.20;99.90
2729;DHT22;1372;47.956;7.830;2023-02-15T06:02:17;-2.30;99.90
2729;DHT22;1372;47.956;7.830;2023-02-15T06:04:47;-2.30;99.90
2729;DHT22;1372;47.956;7.830;2023-02-15T06:07:16;-2.40;99.90
2729;DHT22;1372;47.956;7.830;2023-02-15T06:09:44;-2.40;99.90
2729;DHT22;1372;47.956;7.830;2023-02-15T06:12:15;-2.40;99.90
2729;DHT22;1372;47.956;7.830;2023-02-15T06:14:44;-2.50;99.90
2729;DHT22;1372;47.956;7.830;2023-02-15T06:17:13;-2.60;99.90
2729;DHT22;1372;47.956;7.830;2023-02-15T06:19:41;-2.60;99.90
2729;DHT22;1372;47.956;7.830;2023-02-15T06:22:11;-2.70;99.90
2729;DHT22;1372;47.956;7.830;2023-02-15T06:24:41;-2.60;99.90
2729;DHT22;1372;47.956;7.830;2023-02-15T06:27:10;-2.50;99.90
2729;DHT22;1372;47.956;7.830;2023-02-15T06:29:39;-2.50;99.90
2729;DHT22;1372;47.956;7.830;2023-02-15T06:32:08;-2.50;99.90
2729;DHT22;1372;47.956;7.830;2023-02-15T06:34:36;-2.50;99.90
2729;DHT22;1372;47.956;7.830;2023-02-15T06:37:08;-2.50;99.90
2729;DHT22;1372;47.956;7.830;2023-02-15T06:39:38;-2.50;99.90
2729;DHT22;1372;47.956;7.830;2023-02-15T06:42:07;-2.50;99.90
2729;DHT22;1372;47.956;7.830;2023-02-15T06:44:36;-2.60;99.90
2729;DHT22;1372;47.956;7.830;2023-02-15T06:47:05;-2.50;99.90
2729;DHT22;1372;47.956;7.830;2023-02-15T06:49:34;-2.50;99.90
2729;DHT22;1372;47.956;7.830;2023-02-15T06:52:05;-2.60;99.90
2729;DHT22;1372;47.956;7.830;2023-02-15T06:54:34;-2.60;99.90
2729;DHT22;1372;47.956;7.830;2023-02-15T06:57:04;-2.60;99.90
2729;DHT22;1372;47.956;7.830;2023-02-15T06:59:33;-2.70;99.90
2729;DHT22;1372;47.956;7.830;2023-02-15T07:02:02;-2.60;99.90
2729;DHT22;1372;47.956;7.830;2023-02-15T07:04:30;-2.70;99.90
2729;DHT22;1372;47.956;7.830;2023-02-15T07:06:59;-2.60;99.90
2729;DHT22;1372;47.956;7.830;2023-02-15T07:09:28;-2.60;99.90
2729;DHT22;1372;47.956;7.830;2023-02-15T07:11:58;-2.50;99.90
2729;DHT22;1372;47.956;7.830;2023-02-15T07:14:46;-2.40;99.90
2729;DHT22;1372;47.956;7.830;2023-02-15T07:17:15;-2.40;99.90
2729;DHT22;1372;47.956;7.830;2023-02-15T07:20:02;-2.30;99.90
2729;DHT22;1372;47.956;7.830;2023-02-15T07:22:31;-2.30;99.90
2729;DHT22;1372;47.956;7.830;2023-02-15T07:25:03;-2.30;99.90
2729;DHT22;1372;47.956;7.830;2023-02-15T07:27:31;-2.20;99.90
2729;DHT22;1372;47.956;7.830;2023-02-15T07:30:02;-2.20;99.90
2729;DHT22;1372;47.956;7.830;2023-02-15T07:32:37;-2.20;99.90
2729;DHT22;1372;47.956;7.830;2023-02-15T07:35:27;-2.20;99.90
2729;DHT22;1372;47.956;7.830;2023-02-15T07:37:56;-2.20;99.90
2729;DHT22;1372;47.956;7.830;2023-02-15T07:40:29;-2.20;99.90
2729;DHT22;1372;47.956;7.830;2023-02-15T07:43:06;-2.20;99.90
2729;DHT22;1372;47.956;7.830;2023-02-15T07:45:36;-2.20;99.90
2729;DHT22;1372;47.956;7.830;2023-02-15T07:48:08;-2.20;99.90
2729;DHT22;1372;47.956;7.830;2023-02-15T07:50:37;-2.10;99.90
2729;DHT22;1372;47.956;7.830;2023-02-15T07:53:05;-1.90;99.90
2729;DHT22;1372;47.956;7.830;2023-02-15T07:55:35;-1.90;99.90
2729;DHT22;1372;47.956;7.830;2023-02-15T07:58:03;-2.00;99.90
2729;DHT22;1372;47.956;7.830;2023-02-15T08:00:32;-1.90;99.90
2729;DHT22;1372;47.956;7.830;2023-02-15T08:03:24;-1.80;99.90
2729;DHT22;1372;47.956;7.830;2023-02-15T08:05:57;-1.70;99.90
2729;DHT22;1372;47.956;7.830;2023-02-15T08:08:30;-1.70;99.90
2729;DHT22;1372;47.956;7.830;2023-02-15T08:11:03;-1.60;99.90
2729;DHT22;1372;47.956;7.830;2023-02-15T08:13:51;-1.50;99.90
2729;DHT22;1372;47.956;7.830;2023-02-15T08:16:29;-1.40;99.90
2729;DHT22;1372;47.956;7.830;2023-02-15T08:19:04;-1.30;99.90
2729;DHT22;1372;47.956;7.830;2023-02-15T08:21:36;-1.30;99.90
2729;DHT22;1372;47.956;7.830;2023-02-15T08:24:31;-1.40;99.90
2729;DHT22;1372;47.956;7.830;2023-02-15T08:27:02;-1.40;99.90
2729;DHT22;1372;47.956;7.830;2023-02-15T08:29:34;-1.40;99.90
2729;DHT22;1372;47.956;7.830;2023-02-15T08:32:06;-1.30;99.90
2729;DHT22;1372;47.956;7.830;2023-02-15T08:34:40;-1.20;99.90
2729;DHT22;1372;47.956;7.830;2023-02-15T08:37:12;-1.00;99.90
2729;DHT22;1372;47.956;7.830;2023-02-15T08:39:41;-0.80;99.90
2729;DHT22;1372;47.956;7.830;2023-02-15T08:42:13;-0.60;99.90
2729;DHT22;1372;47.956;7.830;2023-02-15T08:44:41;-0.60;99.90
2729;DHT22;1372;47.956;7.830;2023-02-15T08:47:12;-0.50;99.90
2729;DHT22;1372;47.956;7.830;2023-02-15T08:49:42;-0.50;99.90
2729;DHT22;1372;47.956;7.830;2023-02-15T08:52:13;-0.50;99.90
2729;DHT22;1372;47.956;7.830;2023-02-15T08:54:42;-0.40;99.90
2729;DHT22;1372;47.956;7.830;2023-02-15T08:57:11;-0.30;99.90
2729;DHT22;1372;47.956;7.830;2023-02-15T08:59:40;-0.20;99.90
2729;DHT22;1372;47.956;7.830;2023-02-15T09:02:10;-0.20;99.90
2729;DHT22;1372;47.956;7.830;2023-02-15T09:04:42;-0.20;99.90
2729;DHT22;1372;47.956;7.830;2023-02-15T09:07:16;-0.10;99.90
2729;DHT22;1372;47.956;7.830;2023-02-15T09:09:46;0.00;99.90
2729;DHT22;1372;47.956;7.830;2023-02-15T09:12:14;0.10;99.90
2729;DHT22;1372;47.956;7.830;2023-02-15T09:14:43;0.20;99.90
2729;DHT22;1372;47.956;7.830;2023-02-15T09:17:12;0.20;99.90
2729;DHT22;1372;47.956;7.830;2023-02-15T09:19:46;0.30;99.90
2729;DHT22;1372;47.956;7.830;2023-02-15T09:22:14;0.50;99.90
2729;DHT22;1372;47.956;7.830;2023-02-15T09:24:43;0.50;99.90
2729;DHT22;1372;47.956;7.830;2023-02-15T09:27:12;0.60;99.90
2729;DHT22;1372;47.956;7.830;2023-02-15T09:29:40;0.60;99.90
2729;DHT22;1372;47.956;7.830;2023-02-15T09:32:13;0.80;99.90
2729;DHT22;1372;47.956;7.830;2023-02-15T09:34:42;0.80;99.90
2729;DHT22;1372;47.956;7.830;2023-02-15T09:37:12;0.80;99.90
2729;DHT22;1372;47.956;7.830;2023-02-15T09:39:44;0.90;99.90
2729;DHT22;1372;47.956;7.830;2023-02-15T09:42:34;1.00;99.90
2729;DHT22;1372;47.956;7.830;2023-02-15T09:48:35;1.00;99.90
2729;DHT22;1372;47.956;7.830;2023-02-15T09:54:52;1.10;99.90
2729;DHT22;1372;47.956;7.830;2023-02-15T09:57:34;1.20;99.90
2729;DHT22;1372;47.956;7.830;2023-02-15T10:00:09;1.20;99.90
2729;DHT22;1372;47.956;7.830;2023-02-15T10:02:54;1.20;99.90
2729;DHT22;1372;47.956;7.830;2023-02-15T10:05:52;1.40;99.90
2729;DHT22;1372;47.956;7.830;2023-02-15T10:08:47;1.40;99.90
2729;DHT22;1372;47.956;7.830;2023-02-15T10:11:48;1.40;99.90
2729;DHT22;1372;47.956;7.830;2023-02-15T10:14:52;1.40;99.90
2729;DHT22;1372;47.956;7.830;2023-02-15T10:17:41;1.50;99.90
2729;DHT22;1372;47.956;7.830;2023-02-15T10:20:24;1.50;99.90
2729;DHT22;1372;47.956;7.830;2023-02-15T10:23:13;1.60;99.90
2729;DHT22;1372;47.956;7.830;2023-02-15T10:26:11;1.70;99.90
2729;DHT22;1372;47.956;7.830;2023-02-15T10:28:49;1.80;99.90
2729;DHT22;1372;47.956;7.830;2023-02-15T10:31:27;1.80;99.90
2729;DHT22;1372;47.956;7.830;2023-02-15T10:34:11;1.80;99.90
2729;DHT22;1372;47.956;7.830;2023-02-15T10:37:01;1.90;99.90
2729;DHT22;1372;47.956;7.830;2023-02-15T10:39:44;1.90;99.90
2729;DHT22;1372;47.956;7.830;2023-02-15T10:42:25;2.00;99.90
2729;DHT22;1372;47.956;7.830;2023-02-15T10:45:15;2.00;99.90
2729;DHT22;1372;47.956;7.830;2023-02-15T10:48:10;2.10;99.90
2729;DHT22;1372;47.956;7.830;2023-02-15T10:50:58;2.00;99.90
2729;DHT22;1372;47.956;7.830;2023-02-15T10:53:39;2.10;99.90
2729;DHT22;1372;47.956;7.830;2023-02-15T10:56:24;2.20;99.90
2729;DHT22;1372;47.956;7.830;2023-02-15T10:59:09;2.20;99.90
2729;DHT22;1372;47.956;7.830;2023-02-15T11:02:01;2.20;99.90
2729;DHT22;1372;47.956;7.830;2023-02-15T11:04:52;2.20;99.90
2729;DHT22;1372;47.956;7.830;2023-02-15T11:07:27;2.30;99.90
2729;DHT22;1372;47.956;7.830;2023-02-15T11:10:06;2.40;99.90
2729;DHT22;1372;47.956;7.830;2023-02-15T11:12:46;2.50;99.90
2729;DHT22;1372;47.956;7.830;2023-02-15T11:15:18;2.50;99.90
2729;DHT22;1372;47.956;7.830;2023-02-15T11:17:55;2.60;99.90
2729;DHT22;1372;47.956;7.830;2023-02-15T11:20:30;2.60;99.90
2729;DHT22;1372;47.956;7.830;2023-02-15T11:23:02;2.70;99.90
2729;DHT22;1372;47.956;7.830;2023-02-15T11:25:35;2.80;99.90
2729;DHT22;1372;47.956;7.830;2023-02-15T11:28:13;3.10;99.90
2729;DHT22;1372;47.956;7.830;2023-02-15T11:30:50;3.10;99.90
2729;DHT22;1372;47.956;7.830;2023-02-15T11:33:24;3.30;99.90
2729;DHT22;1372;47.956;7.830;2023-02-15T11:36:01;3.40;99.90
2729;DHT22;1372;47.956;7.830;2023-02-15T11:38:33;3.50;99.90
2729;DHT22;1372;47.956;7.830;2023-02-15T11:41:05;3.60;99.90
2729;DHT22;1372;47.956;7.830;2023-02-15T11:43:38;3.70;99.90
2729;DHT22;1372;47.956;7.830;2023-02-15T11:46:12;3.80;99.90
2729;DHT22;1372;47.956;7.830;2023-02-15T11:48:43;4.00;99.90
2729;DHT22;1372;47.956;7.830;2023-02-15T11:51:16;4.10;99.90
2729;DHT22;1372;47.956;7.830;2023-02-15T11:53:49;4.10;99.90
2729;DHT22;1372;47.956;7.830;2023-02-15T11:56:21;4.20;99.90
2729;DHT22;1372;47.956;7.830;2023-02-15T11:58:54;4.30;99.90
2729;DHT22;1372;47.956;7.830;2023-02-15T12:01:30;4.50;99.90
2729;DHT22;1372;47.956;7.830;2023-02-15T12:04:06;4.60;99.90
2729;DHT22;1372;47.956;7.830;2023-02-15T12:06:42;4.70;99.90
2729;DHT22;1372;47.956;7.830;2023-02-15T12:09:18;4.70;99.90
2729;DHT22;1372;47.956;7.830;2023-02-15T12:11:52;4.70;99.90
2729;DHT22;1372;47.956;7.830;2023-02-15T12:14:22;4.90;99.90
2729;DHT22;1372;47.956;7.830;2023-02-15T12:16:54;5.00;99.90
2729;DHT22;1372;47.956;7.830;2023-02-15T12:19:29;5.10;99.90
2729;DHT22;1372;47.956;7.830;2023-02-15T12:22:02;5.20;99.90
2729;DHT22;1372;47.956;7.830;2023-02-15T12:24:36;5.20;99.90
2729;DHT22;1372;47.956;7.830;2023-02-15T12:27:15;5.30;99.90
2729;DHT22;1372;47.956;7.830;2023-02-15T12:29:48;5.40;99.90
2729;DHT22;1372;47.956;7.830;2023-02-15T12:32:24;5.50;99.90
2729;DHT22;1372;47.956;7.830;2023-02-15T12:35:06;5.60;99.90
2729;DHT22;1372;47.956;7.830;2023-02-15T12:37:37;5.60;99.90
2729;DHT22;1372;47.956;7.830;2023-02-15T12:40:20;5.70;99.90
2729;DHT22;1372;47.956;7.830;2023-02-15T12:42:50;5.80;99.90
2729;DHT22;1372;47.956;7.830;2023-02-15T12:45:26;5.80;99.90
2729;DHT22;1372;47.956;7.830;2023-02-15T12:48:14;5.90;99.90
2729;DHT22;1372;47.956;7.830;2023-02-15T12:50:46;5.90;99.90
2729;DHT22;1372;47.956;7.830;2023-02-15T12:53:33;5.90;99.90
2729;DHT22;1372;47.956;7.830;2023-02-15T12:56:07;6.00;99.90
2729;DHT22;1372;47.956;7.830;2023-02-15T12:58:38;6.10;99.90
2729;DHT22;1372;47.956;7.830;2023-02-15T13:01:12;6.10;99.90
2729;DHT22;1372;47.956;7.830;2023-02-15T13:04:01;6.20;99.90
2729;DHT22;1372;47.956;7.830;2023-02-15T13:06:34;6.30;99.90
2729;DHT22;1372;47.956;7.830;2023-02-15T13:09:08;6.30;99.90
2729;DHT22;1372;47.956;7.830;2023-02-15T13:11:45;6.40;99.90
2729;DHT22;1372;47.956;7.830;2023-02-15T13:14:18;6.50;99.90
2729;DHT22;1372;47.956;7.830;2023-02-15T13:16:50;6.50;99.90
2729;DHT22;1372;47.956;7.830;2023-02-15T13:19:26;6.60;99.90
2729;DHT22;1372;47.956;7.830;2023-02-15T13:22:05;6.70;99.90
2729;DHT22;1372;47.956;7.830;2023-02-15T13:24:39;6.80;99.90
2729;DHT22;1372;47.956;7.830;2023-02-15T13:27:13;6.80;99.90
2729;DHT22;1372;47.956;7.830;2023-02-15T13:29:45;6.90;99.90
2729;DHT22;1372;47.956;7.830;2023-02-15T13:32:25;6.90;99.90
2729;DHT22;1372;47.956;7.830;2023-02-15T13:34:58;6.80;99.90
2729;DHT22;1372;47.956;7.830;2023-02-15T13:37:45;6.90;99.90
2729;DHT22;1372;47.956;7.830;2023-02-15T13:40:24;7.00;99.90
2729;DHT22;1372;47.956;7.830;2023-02-15T13:42:57;7.10;99.90
2729;DHT22;1372;47.956;7.830;2023-02-15T13:45:36;7.10;99.90
2729;DHT22;1372;47.956;7.830;2023-02-15T13:48:15;7.20;99.90
2729;DHT22;1372;47.956;7.830;2023-02-15T13:50:56;7.30;99.90
2729;DHT22;1372;47.956;7.830;2023-02-15T13:53:46;7.30;99.90
2729;DHT22;1372;47.956;7.830;2023-02-15T13:56:38;7.40;99.90
2729;DHT22;1372;47.956;7.830;2023-02-15T13:59:29;7.40;99.90
2729;DHT22;1372;47.956;7.830;2023-02-15T14:02:43;7.60;99.90
2729;DHT22;1372;47.956;7.830;2023-02-15T14:05:43;7.70;99.90
2729;DHT22;1372;47.956;7.830;2023-02-15T14:08:44;7.80;99.90
2729;DHT22;1372;47.956;7.830;2023-02-15T14:11:22;7.80;99.90
2729;DHT22;1372;47.956;7.830;2023-02-15T14:14:39;7.90;99.90
2729;DHT22;1372;47.956;7.830;2023-02-15T14:17:41;7.90;99.90
2729;DHT22;1372;47.956;7.830;2023-02-15T14:20:39;7.90;99.90
2729;DHT22;1372;47.956;7.830;2023-02-15T14:23:21;8.10;99.90
2729;DHT22;1372;47.956;7.830;2023-02-15T14:26:08;8.20;99.90
2729;DHT22;1372;47.956;7.830;2023-02-15T14:28:43;8.30;99.90
2729;DHT22;1372;47.956;7.830;2023-02-15T14:31:15;8.30;99.90
2729;DHT22;1372;47.956;7.830;2023-02-15T14:33:53;8.40;99.90
2729;DHT22;1372;47.956;7.830;2023-02-15T14:36:24;8.50;99.90
2729;DHT22;1372;47.956;7.830;2023-02-15T14:39:06;8.50;99.90
2729;DHT22;1372;47.956;7.830;2023-02-15T14:42:03;8.60;99.90
2729;DHT22;1372;47.956;7.830;2023-02-15T14:44:37;8.60;99.90
2729;DHT22;1372;47.956;7.830;2023-02-15T14:47:10;8.60;99.90
2729;DHT22;1372;47.956;7.830;2023-02-15T14:49:42;8.70;99.90
2729;DHT22;1372;47.956;7.830;2023-02-15T14:52:11;8.90;99.90
2729;DHT22;1372;47.956;7.830;2023-02-15T14:55:07;8.90;99.90
2729;DHT22;1372;47.956;7.830;2023-02-15T14:57:39;9.00;99.90
2729;DHT22;1372;47.956;7.830;2023-02-15T15:00:36;9.10;99.90
2729;DHT22;1372;47.956;7.830;2023-02-15T15:03:20;9.20;99.90
2729;DHT22;1372;47.956;7.830;2023-02-15T15:05:54;9.20;99.90
2729;DHT22;1372;47.956;7.830;2023-02-15T15:08:31;9.30;99.90
2729;DHT22;1372;47.956;7.830;2023-02-15T15:14:52;9.40;99.90
2729;DHT22;1372;47.956;7.830;2023-02-15T15:17:52;9.60;99.90
2729;DHT22;1372;47.956;7.830;2023-02-15T15:20:46;9.60;99.90
2729;DHT22;1372;47.956;7.830;2023-02-15T15:23:40;9.80;99.90
2729;DHT22;1372;47.956;7.830;2023-02-15T15:26:22;9.80;99.90
2729;DHT22;1372;47.956;7.830;2023-02-15T15:28:59;9.80;99.90
2729;DHT22;1372;47.956;7.830;2023-02-15T15:31:40;9.90;99.90
2729;DHT22;1372;47.956;7.830;2023-02-15T15:34:26;9.90;99.90
2729;DHT22;1372;47.956;7.830;2023-02-15T15:40:41;9.90;99.90
2729;DHT22;1372;47.956;7.830;2023-02-15T15:47:03;9.80;99.90
2729;DHT22;1372;47.956;7.830;2023-02-15T15:49:40;9.70;99.90
2729;DHT22;1372;47.956;7.830;2023-02-15T15:52:26;9.60;99.90
2729;DHT22;1372;47.956;7.830;2023-02-15T15:55:14;9.50;99.90
2729;DHT22;1372;47.956;7.830;2023-02-15T15:57:47;9.30;99.90
2729;DHT22;1372;47.956;7.830;2023-02-15T16:00:34;9.10;99.90
2729;DHT22;1372;47.956;7.830;2023-02-15T16:03:14;9.10;99.90
2729;DHT22;1372;47.956;7.830;2023-02-15T16:05:44;9.00;99.90
2729;DHT22;1372;47.956;7.830;2023-02-15T16:08:28;8.70;99.90
2729;DHT22;1372;47.956;7.830;2023-02-15T16:11:10;8.50;99.90
2729;DHT22;1372;47.956;7.830;2023-02-15T16:13:54;8.10;99.90
2729;DHT22;1372;47.956;7.830;2023-02-15T16:16:29;7.80;99.90
2729;DHT22;1372;47.956;7.830;2023-02-15T16:18:59;7.60;99.90
2729;DHT22;1372;47.956;7.830;2023-02-15T16:21:30;7.20;99.90
2729;DHT22;1372;47.956;7.830;2023-02-15T16:24:26;7.00;99.90
2729;DHT22;1372;47.956;7.830;2023-02-15T16:27:24;6.70;99.90
2729;DHT22;1372;47.956;7.830;2023-02-15T16:30:19;6.50;99.90
2729;DHT22;1372;47.956;7.830;2023-02-15T16:32:54;6.20;99.90
2729;DHT22;1372;47.956;7.830;2023-02-15T16:35:32;6.00;99.90
2729;DHT22;1372;47.956;7.830;2023-02-15T16:38:01;5.80;99.90
2729;DHT22;1372;47.956;7.830;2023-02-15T16:40:49;5.70;99.90
2729;DHT22;1372;47.956;7.830;2023-02-15T16:43:25;5.50;99.90
2729;DHT22;1372;47.956;7.830;2023-02-15T16:46:02;5.40;99.90
2729;DHT22;1372;47.956;7.830;2023-02-15T16:48:38;5.30;99.90
2729;DHT22;1372;47.956;7.830;2023-02-15T16:51:09;5.10;99.90
2729;DHT22;1372;47.956;7.830;2023-02-15T16:53:39;5.00;99.90
2729;DHT22;1372;47.956;7.830;2023-02-15T16:56:10;4.90;99.90
2729;DHT22;1372;47.956;7.830;2023-02-15T16:58:42;4.80;99.90
2729;DHT22;1372;47.956;7.830;2023-02-15T17:01:14;4.80;99.90
2729;DHT22;1372;47.956;7.830;2023-02-15T17:03:43;4.70;99.90
2729;DHT22;1372;47.956;7.830;2023-02-15T17:06:22;4.70;99.90
2729;DHT22;1372;47.956;7.830;2023-02-15T17:09:03;4.50;99.90
2729;DHT22;1372;47.956;7.830;2023-02-15T17:11:35;4.30;99.90
2729;DHT22;1372;47.956;7.830;2023-02-15T17:14:19;4.20;99.90
2729;DHT22;1372;47.956;7.830;2023-02-15T17:16:53;4.10;99.90
2729;DHT22;1372;47.956;7.830;2023-02-15T17:19:26;4.00;99.90
2729;DHT22;1372;47.956;7.830;2023-02-15T17:21:59;3.90;99.90
2729;DHT22;1372;47.956;7.830;2023-02-15T17:24:38;3.80;99.90
2729;DHT22;1372;47.956;7.830;2023-02-15T17:27:14;3.70;99.90
2729;DHT22;1372;47.956;7.830;2023-02-15T17:29:48;3.60;99.90